sensor_id;sensor_type;location;lat;lon;timestamp;pressure;altitude;pressure_sealevel;temperature
79756;BMP280;69239;50.678;12.280;2023-07-31T00:01:01;97414.69;;;15.27
79756;BMP280;69239;50.678;12.280;2023-07-31T00:03:26;97403.47;;;15.18
79756;BMP280;69239;50.678;12.280;2023-07-31T00:05:51;97404.84;;;15.28
79756;BMP280;69239;50.678;12.280;2023-07-31T00:08:17;97407.19;;;15.33
79756;BMP280;69239;50.678;12.280;2023-07-31T00:10:42;97406.94;;;15.38
79756;BMP280;69239;50.678;12.280;2023-07-31T00:13:07;97396.69;;;15.36
79756;BMP280;69239;50.678;12.280;2023-07-31T00:15:32;97401.75;;;15.41
79756;BMP280;69239;50.678;12.280;2023-07-31T00:17:58;97379.50;;;15.30
79756;BMP280;69239;50.678;12.280;2023-07-31T00:20:23;97395.72;;;15.44
79756;BMP280;69239;50.678;12.280;2023-07-31T00:22:49;97393.84;;;15.45
79756;BMP280;69239;50.678;12.280;2023-07-31T00:25:14;97382.56;;;15.48
79756;BMP280;69239;50.678;12.280;2023-07-31T00:27:39;97384.09;;;15.49
79756;BMP280;69239;50.678;12.280;2023-07-31T00:30:10;97374.94;;;15.46
79756;BMP280;69239;50.678;12.280;2023-07-31T00:32:35;97380.88;;;15.59
79756;BMP280;69239;50.678;12.280;2023-07-31T00:35:01;97385.19;;;15.64
79756;BMP280;69239;50.678;12.280;2023-07-31T00:37:27;97378.75;;;15.65
79756;BMP280;69239;50.678;12.280;2023-07-31T00:39:52;97372.31;;;15.66
79756;BMP280;69239;50.678;12.280;2023-07-31T00:42:17;97377.09;;;15.76
79756;BMP280;69239;50.678;12.280;2023-07-31T00:44:43;97372.44;;;15.69
79756;BMP280;69239;50.678;12.280;2023-07-31T00:47:08;97368.78;;;15.77
79756;BMP280;69239;50.678;12.280;2023-07-31T00:49:33;97351.94;;;15.70
79756;BMP280;69239;50.678;12.280;2023-07-31T00:51:59;97370.53;;;15.89
79756;BMP280;69239;50.678;12.280;2023-07-31T00:54:25;97370.53;;;15.89
79756;BMP280;69239;50.678;12.280;2023-07-31T00:56:52;97356.16;;;15.90
79756;BMP280;69239;50.678;12.280;2023-07-31T00:59:18;97339.75;;;15.84
79756;BMP280;69239;50.678;12.280;2023-07-31T01:01:44;97362.03;;;15.99
79756;BMP280;69239;50.678;12.280;2023-07-31T01:04:10;97364.69;;;15.99
79756;BMP280;69239;50.678;12.280;2023-07-31T01:07:02;97346.63;;;15.89
79756;BMP280;69239;50.678;12.280;2023-07-31T01:09:45;97366.91;;;15.97
79756;BMP280;69239;50.678;12.280;2023-07-31T01:12:16;97367.75;;;16.01
79756;BMP280;69239;50.678;12.280;2023-07-31T01:17:26;97366.22;;;16.00
79756;BMP280;69239;50.678;12.280;2023-07-31T01:19:53;97361.59;;;15.97
79756;BMP280;69239;50.678;12.280;2023-07-31T01:25:32;97360.91;;;16.00
79756;BMP280;69239;50.678;12.280;2023-07-31T01:28:06;97337.84;;;15.85
79756;BMP280;69239;50.678;12.280;2023-07-31T01:30:33;97359.38;;;15.99
79756;BMP280;69239;50.678;12.280;2023-07-31T01:33:01;97349.88;;;15.98
79756;BMP280;69239;50.678;12.280;2023-07-31T01:35:33;97344.44;;;15.91
79756;BMP280;69239;50.678;12.280;2023-07-31T01:37:58;97347.13;;;15.95
79756;BMP280;69239;50.678;12.280;2023-07-31T01:40:23;97346.38;;;15.94
79756;BMP280;69239;50.678;12.280;2023-07-31T01:42:49;97345.09;;;15.88
79756;BMP280;69239;50.678;12.280;2023-07-31T01:45:14;97342.53;;;15.92
79756;BMP280;69239;50.678;12.280;2023-07-31T01:47:39;97347.13;;;15.95
79756;BMP280;69239;50.678;12.280;2023-07-31T01:50:05;97344.06;;;15.93
79756;BMP280;69239;50.678;12.280;2023-07-31T01:52:31;97336.00;;;15.89
79756;BMP280;69239;50.678;12.280;2023-07-31T01:54:56;97342.53;;;15.92
79756;BMP280;69239;50.678;12.280;2023-07-31T01:57:21;97328.63;;;15.79
79756;BMP280;69239;50.678;12.280;2023-07-31T01:59:47;97324.84;;;15.80
79756;BMP280;69239;50.678;12.280;2023-07-31T02:02:12;97336.25;;;15.80
79756;BMP280;69239;50.678;12.280;2023-07-31T02:04:38;97336.16;;;15.77
79756;BMP280;69239;50.678;12.280;2023-07-31T02:07:04;97330.00;;;15.73
79756;BMP280;69239;50.678;12.280;2023-07-31T02:09:30;97331.56;;;15.74
79756;BMP280;69239;50.678;12.280;2023-07-31T02:11:55;97324.28;;;15.71
79756;BMP280;69239;50.678;12.280;2023-07-31T02:14:20;97333.81;;;15.75
79756;BMP280;69239;50.678;12.280;2023-07-31T02:16:46;97314.66;;;15.63
79756;BMP280;69239;50.678;12.280;2023-07-31T02:19:11;97329.84;;;15.66
79756;BMP280;69239;50.678;12.280;2023-07-31T02:21:36;97327.63;;;15.68
79756;BMP280;69239;50.678;12.280;2023-07-31T02:24:02;97326.81;;;15.64
79756;BMP280;69239;50.678;12.280;2023-07-31T02:26:27;97323.72;;;15.62
79756;BMP280;69239;50.678;12.280;2023-07-31T02:28:53;97322.88;;;15.58
79756;BMP280;69239;50.678;12.280;2023-07-31T02:31:18;97325.28;;;15.63
79756;BMP280;69239;50.678;12.280;2023-07-31T02:33:43;97307.56;;;15.51
79756;BMP280;69239;50.678;12.280;2023-07-31T02:36:09;97326.69;;;15.60
79756;BMP280;69239;50.678;12.280;2023-07-31T02:38:34;97308.34;;;15.51
79756;BMP280;69239;50.678;12.280;2023-07-31T02:40:59;97294.56;;;15.46
79756;BMP280;69239;50.678;12.280;2023-07-31T02:43:25;97305.28;;;15.49
79756;BMP280;69239;50.678;12.280;2023-07-31T02:45:53;97303.72;;;15.48
79756;BMP280;69239;50.678;12.280;2023-07-31T02:48:19;97306.09;;;15.53
79756;BMP280;69239;50.678;12.280;2023-07-31T02:50:45;97308.69;;;15.50
79756;BMP280;69239;50.678;12.280;2023-07-31T02:53:10;97298.00;;;15.46
79756;BMP280;69239;50.678;12.280;2023-07-31T02:55:36;97303.31;;;15.46
79756;BMP280;69239;50.678;12.280;2023-07-31T02:58:01;97289.06;;;15.35
79756;BMP280;69239;50.678;12.280;2023-07-31T03:00:28;97298.97;;;15.38
79756;BMP280;69239;50.678;12.280;2023-07-31T03:02:53;97303.84;;;15.36
79756;BMP280;69239;50.678;12.280;2023-07-31T03:05:18;97307.75;;;15.42
79756;BMP280;69239;50.678;12.280;2023-07-31T03:07:44;97308.13;;;15.41
79756;BMP280;69239;50.678;12.280;2023-07-31T03:10:09;97293.50;;;15.31
79756;BMP280;69239;50.678;12.280;2023-07-31T03:12:34;97297.97;;;15.27
79756;BMP280;69239;50.678;12.280;2023-07-31T03:15:00;97304.97;;;15.35
79756;BMP280;69239;50.678;12.280;2023-07-31T03:17:25;97287.38;;;15.27
79756;BMP280;69239;50.678;12.280;2023-07-31T03:19:50;97283.16;;;15.26
79756;BMP280;69239;50.678;12.280;2023-07-31T03:22:16;97301.06;;;15.29
79756;BMP280;69239;50.678;12.280;2023-07-31T03:24:41;97307.97;;;15.34
79756;BMP280;69239;50.678;12.280;2023-07-31T03:27:06;97309.41;;;15.31
79756;BMP280;69239;50.678;12.280;2023-07-31T03:29:32;97302.59;;;15.30
79756;BMP280;69239;50.678;12.280;2023-07-31T03:31:57;97294.97;;;15.29
79756;BMP280;69239;50.678;12.280;2023-07-31T03:34:22;97298.78;;;15.31
79756;BMP280;69239;50.678;12.280;2023-07-31T03:36:48;97300.63;;;15.27
79756;BMP280;69239;50.678;12.280;2023-07-31T03:39:13;97296.09;;;15.28
79756;BMP280;69239;50.678;12.280;2023-07-31T03:41:38;97288.06;;;15.24
79756;BMP280;69239;50.678;12.280;2023-07-31T03:44:04;97271.56;;;15.15
79756;BMP280;69239;50.678;12.280;2023-07-31T03:46:29;97292.66;;;15.27
79756;BMP280;69239;50.678;12.280;2023-07-31T03:48:54;97286.09;;;15.21
79756;BMP280;69239;50.678;12.280;2023-07-31T03:51:20;97280.00;;;15.20
79756;BMP280;69239;50.678;12.280;2023-07-31T03:53:45;97285.66;;;15.19
79756;BMP280;69239;50.678;12.280;2023-07-31T03:56:11;97280.38;;;15.19
79756;BMP280;69239;50.678;12.280;2023-07-31T03:58:36;97277.28;;;15.17
79756;BMP280;69239;50.678;12.280;2023-07-31T04:01:02;97278.06;;;15.17
79756;BMP280;69239;50.678;12.280;2023-07-31T04:03:28;97283.94;;;15.27
79756;BMP280;69239;50.678;12.280;2023-07-31T04:05:54;97287.03;;;15.29
79756;BMP280;69239;50.678;12.280;2023-07-31T04:08:20;97287.41;;;15.31
79756;BMP280;69239;50.678;12.280;2023-07-31T04:10:46;97272.84;;;15.21
79756;BMP280;69239;50.678;12.280;2023-07-31T04:13:12;97269.88;;;15.26
79756;BMP280;69239;50.678;12.280;2023-07-31T04:15:38;97270.75;;;15.30
79756;BMP280;69239;50.678;12.280;2023-07-31T04:18:04;97267.22;;;15.26
79756;BMP280;69239;50.678;12.280;2023-07-31T04:20:30;97271.28;;;15.36
79756;BMP280;69239;50.678;12.280;2023-07-31T04:22:55;97269.78;;;15.38
79756;BMP280;69239;50.678;12.280;2023-07-31T04:25:21;97258.66;;;15.33
79756;BMP280;69239;50.678;12.280;2023-07-31T04:27:46;97257.63;;;15.37
79756;BMP280;69239;50.678;12.280;2023-07-31T04:30:12;97239.06;;;15.37
79756;BMP280;69239;50.678;12.280;2023-07-31T04:32:37;97241.03;;;15.40
79756;BMP280;69239;50.678;12.280;2023-07-31T04:35:03;97254.41;;;15.47
79756;BMP280;69239;50.678;12.280;2023-07-31T04:37:28;97246.22;;;15.52
79756;BMP280;69239;50.678;12.280;2023-07-31T04:39:54;97238.63;;;15.54
79756;BMP280;69239;50.678;12.280;2023-07-31T04:42:19;97245.22;;;15.61
79756;BMP280;69239;50.678;12.280;2023-07-31T04:44:44;97234.59;;;15.61
79756;BMP280;69239;50.678;12.280;2023-07-31T04:47:10;97232.00;;;15.64
79756;BMP280;69239;50.678;12.280;2023-07-31T04:49:35;97221.00;;;15.62
79756;BMP280;69239;50.678;12.280;2023-07-31T04:52:00;97229.84;;;15.70
79756;BMP280;69239;50.678;12.280;2023-07-31T04:54:26;97227.53;;;15.68
79756;BMP280;69239;50.678;12.280;2023-07-31T04:56:51;97238.72;;;15.77
79756;BMP280;69239;50.678;12.280;2023-07-31T04:59:17;97230.41;;;15.79
79756;BMP280;69239;50.678;12.280;2023-07-31T05:01:43;97233.91;;;15.83
79756;BMP280;69239;50.678;12.280;2023-07-31T05:04:12;97232.78;;;15.84
79756;BMP280;69239;50.678;12.280;2023-07-31T05:06:37;97233.25;;;15.89
79756;BMP280;69239;50.678;12.280;2023-07-31T05:09:02;97238.91;;;15.88
79756;BMP280;69239;50.678;12.280;2023-07-31T05:11:28;97240.16;;;15.94
79756;BMP280;69239;50.678;12.280;2023-07-31T05:13:53;97229.41;;;15.87
79756;BMP280;69239;50.678;12.280;2023-07-31T05:16:18;97192.59;;;15.63
79756;BMP280;69239;50.678;12.280;2023-07-31T05:18:44;97232.16;;;15.91
79756;BMP280;69239;50.678;12.280;2023-07-31T05:21:09;97237.84;;;15.93
79756;BMP280;69239;50.678;12.280;2023-07-31T05:23:34;97241.00;;;15.98
79756;BMP280;69239;50.678;12.280;2023-07-31T05:26:04;97237.66;;;16.01
79756;BMP280;69239;50.678;12.280;2023-07-31T05:28:30;97229.31;;;16.03
79756;BMP280;69239;50.678;12.280;2023-07-31T05:31:02;97228.97;;;16.04
79756;BMP280;69239;50.678;12.280;2023-07-31T05:33:27;97219.44;;;16.03
79756;BMP280;69239;50.678;12.280;2023-07-31T05:35:53;97223.81;;;16.11
79756;BMP280;69239;50.678;12.280;2023-07-31T05:38:18;97230.66;;;16.12
79756;BMP280;69239;50.678;12.280;2023-07-31T05:40:43;97230.69;;;16.16
79756;BMP280;69239;50.678;12.280;2023-07-31T05:43:09;97223.91;;;16.18
79756;BMP280;69239;50.678;12.280;2023-07-31T05:45:35;97220.13;;;16.19
79756;BMP280;69239;50.678;12.280;2023-07-31T05:48:00;97216.63;;;16.15
79756;BMP280;69239;50.678;12.280;2023-07-31T05:50:25;97217.88;;;16.21
79756;BMP280;69239;50.678;12.280;2023-07-31T05:52:51;97220.25;;;16.27
79756;BMP280;69239;50.678;12.280;2023-07-31T05:55:17;97225.22;;;16.28
79756;BMP280;69239;50.678;12.280;2023-07-31T05:57:42;97217.72;;;16.34
79756;BMP280;69239;50.678;12.280;2023-07-31T06:00:11;97228.03;;;16.39
79756;BMP280;69239;50.678;12.280;2023-07-31T06:02:38;97208.25;;;16.36
79756;BMP280;69239;50.678;12.280;2023-07-31T06:05:04;97216.69;;;16.42
79756;BMP280;69239;50.678;12.280;2023-07-31T06:07:34;97207.59;;;16.43
79756;BMP280;69239;50.678;12.280;2023-07-31T06:10:00;97226.69;;;16.52
79756;BMP280;69239;50.678;12.280;2023-07-31T06:12:29;97227.91;;;16.54
79756;BMP280;69239;50.678;12.280;2023-07-31T06:14:55;97219.94;;;16.54
79756;BMP280;69239;50.678;12.280;2023-07-31T06:17:20;97212.34;;;16.56
79756;BMP280;69239;50.678;12.280;2023-07-31T06:19:46;97211.63;;;16.59
79756;BMP280;69239;50.678;12.280;2023-07-31T06:22:12;97208.63;;;16.61
79756;BMP280;69239;50.678;12.280;2023-07-31T06:24:37;97212.53;;;16.67
79756;BMP280;69239;50.678;12.280;2023-07-31T06:27:02;97204.59;;;16.71
79756;BMP280;69239;50.678;12.280;2023-07-31T06:29:29;97202.78;;;16.75
79756;BMP280;69239;50.678;12.280;2023-07-31T06:31:54;97210.81;;;16.82
79756;BMP280;69239;50.678;12.280;2023-07-31T06:34:20;97208.22;;;16.85
79756;BMP280;69239;50.678;12.280;2023-07-31T06:36:45;97215.97;;;16.98
79756;BMP280;69239;50.678;12.280;2023-07-31T06:39:10;97223.69;;;17.06
79756;BMP280;69239;50.678;12.280;2023-07-31T06:41:36;97204.78;;;17.15
79756;BMP280;69239;50.678;12.280;2023-07-31T06:44:02;97220.13;;;17.25
79756;BMP280;69239;50.678;12.280;2023-07-31T06:46:27;97215.59;;;17.29
79756;BMP280;69239;50.678;12.280;2023-07-31T06:48:53;97203.13;;;17.33
79756;BMP280;69239;50.678;12.280;2023-07-31T06:51:18;97214.16;;;17.35
79756;BMP280;69239;50.678;12.280;2023-07-31T06:53:43;97220.31;;;17.39
79756;BMP280;69239;50.678;12.280;2023-07-31T06:56:11;97218.81;;;17.42
79756;BMP280;69239;50.678;12.280;2023-07-31T06:58:37;97209.75;;;17.46
79756;BMP280;69239;50.678;12.280;2023-07-31T07:01:03;97216.63;;;17.51
79756;BMP280;69239;50.678;12.280;2023-07-31T07:03:28;97220.47;;;17.53
79756;BMP280;69239;50.678;12.280;2023-07-31T07:05:54;97219.75;;;17.56
79756;BMP280;69239;50.678;12.280;2023-07-31T07:08:19;97221.69;;;17.63
79756;BMP280;69239;50.678;12.280;2023-07-31T07:10:48;97219.78;;;17.63
79756;BMP280;69239;50.678;12.280;2023-07-31T07:13:18;97202.94;;;17.52
79756;BMP280;69239;50.678;12.280;2023-07-31T07:15:48;97197.28;;;17.57
79756;BMP280;69239;50.678;12.280;2023-07-31T07:18:15;97199.94;;;17.57
79756;BMP280;69239;50.678;12.280;2023-07-31T07:20:52;97229.13;;;17.80
79756;BMP280;69239;50.678;12.280;2023-07-31T07:23:18;97232.25;;;17.93
79756;BMP280;69239;50.678;12.280;2023-07-31T07:25:46;97230.81;;;17.99
79756;BMP280;69239;50.678;12.280;2023-07-31T07:28:11;97228.59;;;18.05
79756;BMP280;69239;50.678;12.280;2023-07-31T07:30:41;97228.63;;;18.08
79756;BMP280;69239;50.678;12.280;2023-07-31T07:33:06;97229.81;;;18.14
79756;BMP280;69239;50.678;12.280;2023-07-31T07:35:35;97233.31;;;18.22
79756;BMP280;69239;50.678;12.280;2023-07-31T07:38:03;97224.50;;;18.18
79756;BMP280;69239;50.678;12.280;2023-07-31T07:40:29;97241.63;;;18.20
79756;BMP280;69239;50.678;12.280;2023-07-31T07:42:58;97243.97;;;18.22
79756;BMP280;69239;50.678;12.280;2023-07-31T07:45:25;97233.63;;;18.20
79756;BMP280;69239;50.678;12.280;2023-07-31T07:47:50;97237.06;;;18.17
79756;BMP280;69239;50.678;12.280;2023-07-31T07:50:16;97223.28;;;18.08
79756;BMP280;69239;50.678;12.280;2023-07-31T07:52:41;97235.94;;;18.18
79756;BMP280;69239;50.678;12.280;2023-07-31T07:55:07;97237.88;;;18.21
79756;BMP280;69239;50.678;12.280;2023-07-31T07:57:38;97237.09;;;18.24
79756;BMP280;69239;50.678;12.280;2023-07-31T08:00:04;97237.09;;;18.24
79756;BMP280;69239;50.678;12.280;2023-07-31T08:02:30;97231.41;;;18.22
79756;BMP280;69239;50.678;12.280;2023-07-31T08:04:55;97235.19;;;18.21
79756;BMP280;69239;50.678;12.280;2023-07-31T08:07:20;97236.38;;;18.24
79756;BMP280;69239;50.678;12.280;2023-07-31T08:09:47;97243.28;;;18.28
79756;BMP280;69239;50.678;12.280;2023-07-31T08:12:13;97233.31;;;18.25
79756;BMP280;69239;50.678;12.280;2023-07-31T08:14:39;97234.06;;;18.26
79756;BMP280;69239;50.678;12.280;2023-07-31T08:17:06;97227.59;;;18.23
79756;BMP280;69239;50.678;12.280;2023-07-31T08:19:32;97221.06;;;18.17
79756;BMP280;69239;50.678;12.280;2023-07-31T08:21:57;97244.84;;;18.37
79756;BMP280;69239;50.678;12.280;2023-07-31T08:24:23;97219.22;;;18.21
79756;BMP280;69239;50.678;12.280;2023-07-31T08:26:48;97221.13;;;18.24
79756;BMP280;69239;50.678;12.280;2023-07-31T08:29:13;97203.63;;;18.23
79756;BMP280;69239;50.678;12.280;2023-07-31T08:31:39;97213.53;;;18.26
79756;BMP280;69239;50.678;12.280;2023-07-31T08:34:05;97203.66;;;18.30
79756;BMP280;69239;50.678;12.280;2023-07-31T08:36:35;97219.38;;;18.46
79756;BMP280;69239;50.678;12.280;2023-07-31T08:39:00;97220.53;;;18.49
79756;BMP280;69239;50.678;12.280;2023-07-31T08:41:27;97221.34;;;18.56
79756;BMP280;69239;50.678;12.280;2023-07-31T08:43:53;97215.72;;;18.65
79756;BMP280;69239;50.678;12.280;2023-07-31T08:46:21;97208.84;;;18.64
79756;BMP280;69239;50.678;12.280;2023-07-31T08:48:51;97208.16;;;18.74
79756;BMP280;69239;50.678;12.280;2023-07-31T08:54:39;97239.22;;;19.14
79756;BMP280;69239;50.678;12.280;2023-07-31T08:57:05;97255.25;;;19.25
79756;BMP280;69239;50.678;12.280;2023-07-31T08:59:31;97233.53;;;19.23
79756;BMP280;69239;50.678;12.280;2023-07-31T09:02:04;97241.19;;;19.35
79756;BMP280;69239;50.678;12.280;2023-07-31T09:04:30;97227.84;;;19.35
79756;BMP280;69239;50.678;12.280;2023-07-31T09:07:00;97235.50;;;19.47
79756;BMP280;69239;50.678;12.280;2023-07-31T09:09:26;97231.72;;;19.48
79756;BMP280;69239;50.678;12.280;2023-07-31T09:11:52;97226.41;;;19.55
79756;BMP280;69239;50.678;12.280;2023-07-31T09:14:19;97230.59;;;19.70
79756;BMP280;69239;50.678;12.280;2023-07-31T09:16:52;97219.56;;;19.86
79756;BMP280;69239;50.678;12.280;2023-07-31T09:19:25;97216.50;;;20.02
79756;BMP280;69239;50.678;12.280;2023-07-31T09:21:51;97227.19;;;20.30
79756;BMP280;69239;50.678;12.280;2023-07-31T09:24:27;97221.03;;;20.58
79756;BMP280;69239;50.678;12.280;2023-07-31T09:26:56;97217.53;;;20.79
79756;BMP280;69239;50.678;12.280;2023-07-31T09:29:22;97229.34;;;20.92
79756;BMP280;69239;50.678;12.280;2023-07-31T09:31:48;97227.75;;;21.02
79756;BMP280;69239;50.678;12.280;2023-07-31T09:34:14;97232.72;;;21.14
79756;BMP280;69239;50.678;12.280;2023-07-31T09:36:47;97210.59;;;21.03
79756;BMP280;69239;50.678;12.280;2023-07-31T09:39:13;97221.28;;;21.03
79756;BMP280;69239;50.678;12.280;2023-07-31T09:41:42;97204.84;;;21.04
79756;BMP280;69239;50.678;12.280;2023-07-31T09:44:08;97215.13;;;21.13
79756;BMP280;69239;50.678;12.280;2023-07-31T09:46:35;97194.88;;;21.12
79756;BMP280;69239;50.678;12.280;2023-07-31T09:49:09;97213.22;;;21.13
79756;BMP280;69239;50.678;12.280;2023-07-31T09:51:36;97204.44;;;21.09
79756;BMP280;69239;50.678;12.280;2023-07-31T09:54:14;97208.63;;;21.07
79756;BMP280;69239;50.678;12.280;2023-07-31T09:56:44;97201.78;;;21.09
79756;BMP280;69239;50.678;12.280;2023-07-31T09:59:12;97198.31;;;21.12
79756;BMP280;69239;50.678;12.280;2023-07-31T10:01:39;97203.28;;;21.10
79756;BMP280;69239;50.678;12.280;2023-07-31T10:04:05;97187.22;;;21.10
79756;BMP280;69239;50.678;12.280;2023-07-31T10:06:34;97177.31;;;21.04
79756;BMP280;69239;50.678;12.280;2023-07-31T10:09:00;97189.56;;;21.01
79756;BMP280;69239;50.678;12.280;2023-07-31T10:11:27;97185.72;;;21.02
79756;BMP280;69239;50.678;12.280;2023-07-31T10:13:54;97165.13;;;20.92
79756;BMP280;69239;50.678;12.280;2023-07-31T10:16:20;97166.56;;;21.07
79756;BMP280;69239;50.678;12.280;2023-07-31T10:18:47;97157.28;;;21.30
79756;BMP280;69239;50.678;12.280;2023-07-31T10:21:13;97163.88;;;21.70
79756;BMP280;69239;50.678;12.280;2023-07-31T10:23:39;97161.00;;;21.91
79756;BMP280;69239;50.678;12.280;2023-07-31T10:26:07;97149.81;;;21.99
79756;BMP280;69239;50.678;12.280;2023-07-31T10:28:32;97156.47;;;22.25
79756;BMP280;69239;50.678;12.280;2023-07-31T10:30:59;97166.13;;;22.53
79756;BMP280;69239;50.678;12.280;2023-07-31T10:33:25;97156.63;;;22.75
79756;BMP280;69239;50.678;12.280;2023-07-31T10:38:40;97166.38;;;22.66
79756;BMP280;69239;50.678;12.280;2023-07-31T10:41:09;97168.13;;;22.76
79756;BMP280;69239;50.678;12.280;2023-07-31T10:43:37;97171.50;;;22.84
79756;BMP280;69239;50.678;12.280;2023-07-31T10:46:11;97162.75;;;22.80
79756;BMP280;69239;50.678;12.280;2023-07-31T10:48:37;97162.00;;;22.75
79756;BMP280;69239;50.678;12.280;2023-07-31T10:51:08;97161.75;;;22.66
79756;BMP280;69239;50.678;12.280;2023-07-31T10:53:34;97161.34;;;22.71
79756;BMP280;69239;50.678;12.280;2023-07-31T10:56:00;97150.88;;;22.77
79756;BMP280;69239;50.678;12.280;2023-07-31T10:58:26;97154.94;;;22.89
79756;BMP280;69239;50.678;12.280;2023-07-31T11:00:55;97162.88;;;22.99
79756;BMP280;69239;50.678;12.280;2023-07-31T11:03:40;97137.13;;;23.02
79756;BMP280;69239;50.678;12.280;2023-07-31T11:06:06;97145.06;;;23.12
79756;BMP280;69239;50.678;12.280;2023-07-31T11:08:33;97142.63;;;23.18
79756;BMP280;69239;50.678;12.280;2023-07-31T11:13:34;97150.47;;;23.32
79756;BMP280;69239;50.678;12.280;2023-07-31T11:16:04;97142.19;;;23.23
79756;BMP280;69239;50.678;12.280;2023-07-31T11:18:29;97136.81;;;23.23
79756;BMP280;69239;50.678;12.280;2023-07-31T11:20:55;97120.81;;;23.16
79756;BMP280;69239;50.678;12.280;2023-07-31T11:23:21;97126.53;;;23.18
79756;BMP280;69239;50.678;12.280;2023-07-31T11:25:47;97141.59;;;23.12
79756;BMP280;69239;50.678;12.280;2023-07-31T11:28:14;97143.47;;;23.15
79756;BMP280;69239;50.678;12.280;2023-07-31T11:30:41;97134.69;;;23.11
79756;BMP280;69239;50.678;12.280;2023-07-31T11:33:08;97137.66;;;23.20
79756;BMP280;69239;50.678;12.280;2023-07-31T11:35:44;97126.84;;;23.24
79756;BMP280;69239;50.678;12.280;2023-07-31T11:38:23;97132.63;;;23.45
79756;BMP280;69239;50.678;12.280;2023-07-31T11:40:49;97124.84;;;23.51
79756;BMP280;69239;50.678;12.280;2023-07-31T11:43:15;97112.38;;;23.64
79756;BMP280;69239;50.678;12.280;2023-07-31T11:45:51;97119.97;;;23.89
79756;BMP280;69239;50.678;12.280;2023-07-31T11:50:47;97102.75;;;24.46
79756;BMP280;69239;50.678;12.280;2023-07-31T11:53:15;97094.75;;;24.42
79756;BMP280;69239;50.678;12.280;2023-07-31T11:55:41;97100.75;;;24.30
79756;BMP280;69239;50.678;12.280;2023-07-31T11:58:06;97100.97;;;24.19
79756;BMP280;69239;50.678;12.280;2023-07-31T12:00:32;97087.31;;;24.10
79756;BMP280;69239;50.678;12.280;2023-07-31T12:02:58;97086.56;;;23.90
79756;BMP280;69239;50.678;12.280;2023-07-31T12:05:23;97093.00;;;23.73
79756;BMP280;69239;50.678;12.280;2023-07-31T12:07:53;97089.94;;;23.51
79756;BMP280;69239;50.678;12.280;2023-07-31T12:10:26;97089.94;;;23.51
79756;BMP280;69239;50.678;12.280;2023-07-31T12:13:05;97098.19;;;23.40
79756;BMP280;69239;50.678;12.280;2023-07-31T12:18:04;97083.88;;;23.24
79756;BMP280;69239;50.678;12.280;2023-07-31T12:20:30;97083.94;;;23.20
79756;BMP280;69239;50.678;12.280;2023-07-31T12:22:56;97088.13;;;23.21
79756;BMP280;69239;50.678;12.280;2023-07-31T12:25:22;97083.94;;;23.20
79756;BMP280;69239;50.678;12.280;2023-07-31T12:27:50;97071.00;;;23.11
79756;BMP280;69239;50.678;12.280;2023-07-31T12:30:29;97068.59;;;23.17
79756;BMP280;69239;50.678;12.280;2023-07-31T12:32:55;97065.59;;;23.15
79756;BMP280;69239;50.678;12.280;2023-07-31T12:35:20;97067.28;;;23.05
79756;BMP280;69239;50.678;12.280;2023-07-31T12:37:46;97073.50;;;22.99
79756;BMP280;69239;50.678;12.280;2023-07-31T12:40:11;97064.34;;;22.96
79756;BMP280;69239;50.678;12.280;2023-07-31T12:42:37;97055.19;;;22.94
79756;BMP280;69239;50.678;12.280;2023-07-31T12:45:03;97036.94;;;22.82
79756;BMP280;69239;50.678;12.280;2023-07-31T12:47:29;97041.56;;;22.81
79756;BMP280;69239;50.678;12.280;2023-07-31T12:49:54;97057.16;;;22.90
79756;BMP280;69239;50.678;12.280;2023-07-31T12:52:20;97050.16;;;22.96
79756;BMP280;69239;50.678;12.280;2023-07-31T12:54:45;97052.28;;;23.08
79756;BMP280;69239;50.678;12.280;2023-07-31T12:57:11;97047.06;;;23.21
79756;BMP280;69239;50.678;12.280;2023-07-31T12:59:36;97024.41;;;23.22
79756;BMP280;69239;50.678;12.280;2023-07-31T13:02:02;97038.03;;;23.54
79756;BMP280;69239;50.678;12.280;2023-07-31T13:04:27;97033.47;;;23.74
79756;BMP280;69239;50.678;12.280;2023-07-31T13:06:52;97018.00;;;23.98
79756;BMP280;69239;50.678;12.280;2023-07-31T13:09:18;97036.09;;;24.33
79756;BMP280;69239;50.678;12.280;2023-07-31T13:11:43;97020.56;;;24.41
79756;BMP280;69239;50.678;12.280;2023-07-31T13:14:08;97032.09;;;24.42
79756;BMP280;69239;50.678;12.280;2023-07-31T13:16:33;97034.38;;;24.23
79756;BMP280;69239;50.678;12.280;2023-07-31T13:18:59;97035.78;;;24.12
79756;BMP280;69239;50.678;12.280;2023-07-31T13:21:24;97021.47;;;23.99
79756;BMP280;69239;50.678;12.280;2023-07-31T13:23:49;97039.88;;;24.00
79756;BMP280;69239;50.678;12.280;2023-07-31T13:26:15;97024.03;;;23.86
79756;BMP280;69239;50.678;12.280;2023-07-31T13:28:40;97016.66;;;23.90
79756;BMP280;69239;50.678;12.280;2023-07-31T13:31:05;97024.22;;;23.95
79756;BMP280;69239;50.678;12.280;2023-07-31T13:33:31;97030.44;;;23.92
79756;BMP280;69239;50.678;12.280;2023-07-31T13:35:56;97030.22;;;24.03
79756;BMP280;69239;50.678;12.280;2023-07-31T13:38:21;97008.06;;;23.95
79756;BMP280;69239;50.678;12.280;2023-07-31T13:40:47;97029.31;;;24.09
79756;BMP280;69239;50.678;12.280;2023-07-31T13:43:12;97016.22;;;24.11
79756;BMP280;69239;50.678;12.280;2023-07-31T13:45:37;97020.06;;;24.10
79756;BMP280;69239;50.678;12.280;2023-07-31T13:48:03;97006.25;;;24.08
79756;BMP280;69239;50.678;12.280;2023-07-31T13:50:28;97015.38;;;24.14
79756;BMP280;69239;50.678;12.280;2023-07-31T13:52:54;97020.47;;;24.28
79756;BMP280;69239;50.678;12.280;2023-07-31T13:55:20;96995.81;;;24.30
79756;BMP280;69239;50.678;12.280;2023-07-31T13:57:45;97022.41;;;24.44
79756;BMP280;69239;50.678;12.280;2023-07-31T14:00:11;96986.81;;;24.37
79756;BMP280;69239;50.678;12.280;2023-07-31T14:02:37;97003.56;;;24.44
79756;BMP280;69239;50.678;12.280;2023-07-31T14:05:02;96982.03;;;24.44
79756;BMP280;69239;50.678;12.280;2023-07-31T14:07:28;96991.22;;;24.63
79756;BMP280;69239;50.678;12.280;2023-07-31T14:09:53;96993.59;;;24.77
79756;BMP280;69239;50.678;12.280;2023-07-31T14:12:19;96990.22;;;24.73